createdAt,value
2017-04-05T00:00:20.882Z,959.40
2017-04-05T00:01:20.161Z,959.39
2017-04-05T00:02:21.067Z,959.42
2017-04-05T00:03:19.279Z,959.36
2017-04-05T00:04:19.909Z,959.38
2017-04-05T00:05:20.110Z,959.38
2017-04-05T00:06:20.139Z,959.40
2017-04-05T00:07:22.207Z,959.39
2017-04-05T00:08:20.186Z,959.39
2017-04-05T00:09:20.672Z,959.39
2017-04-05T00:10:20.978Z,959.33
2017-04-05T00:11:20.965Z,959.35
2017-04-05T00:12:23.407Z,959.37
2017-04-05T00:13:18.801Z,959.39
2017-04-05T00:14:27.213Z,959.37
2017-04-05T00:15:21.939Z,959.33
2017-04-05T00:16:20.975Z,959.38
2017-04-05T00:17:20.614Z,959.34
2017-04-05T00:18:19.239Z,959.36
2017-04-05T00:19:21.150Z,959.30
2017-04-05T00:20:20.073Z,959.32
2017-04-05T00:21:19.929Z,959.36
2017-04-05T00:22:20.185Z,959.33
2017-04-05T00:23:20.447Z,959.35
2017-04-05T00:24:20.723Z,959.35
2017-04-05T00:25:19.273Z,959.33
2017-04-05T00:26:23.288Z,959.36
2017-04-05T00:27:20.985Z,959.34
2017-04-05T00:28:21.210Z,959.36
2017-04-05T00:29:21.690Z,959.35
2017-04-05T00:30:19.920Z,959.34
2017-04-05T00:31:23.065Z,959.36
2017-04-05T00:32:28.007Z,959.35
2017-04-05T00:33:24.132Z,959.38
2017-04-05T00:34:20.244Z,959.36
2017-04-05T00:35:19.986Z,959.38
2017-04-05T00:36:19.898Z,959.39
2017-04-05T00:37:19.949Z,959.37
2017-04-05T00:38:20.218Z,959.40
2017-04-05T00:39:19.718Z,959.39
2017-04-05T00:40:21.117Z,959.40
2017-04-05T00:41:19.992Z,959.40
2017-04-05T00:42:19.931Z,959.41
2017-04-05T00:43:21.476Z,959.37
2017-04-05T00:44:20.170Z,959.36
2017-04-05T00:45:20.056Z,959.35
2017-04-05T00:46:20.975Z,959.34
2017-04-05T00:47:20.221Z,959.32
2017-04-05T00:48:20.962Z,959.33
2017-04-05T00:49:19.978Z,959.31
2017-04-05T00:50:20.478Z,959.34
2017-04-05T00:51:15.452Z,959.30
2017-04-05T00:52:21.074Z,959.33
2017-04-05T00:53:24.929Z,959.33
2017-04-05T00:54:19.961Z,959.35
2017-04-05T00:55:21.003Z,959.38
2017-04-05T00:56:26.098Z,959.34
2017-04-05T00:57:23.310Z,959.35
2017-04-05T00:58:20.750Z,959.34
2017-04-05T00:59:21.331Z,959.34
2017-04-05T01:00:20.999Z,959.35
2017-04-05T01:01:19.811Z,959.33
2017-04-05T01:02:25.495Z,959.32
2017-04-05T01:03:20.048Z,959.34
2017-04-05T01:04:29.062Z,959.36
2017-04-05T01:05:21.087Z,959.35
2017-04-05T01:06:20.016Z,959.35
2017-04-05T01:07:20.798Z,959.33
2017-04-05T01:08:20.238Z,959.41
2017-04-05T01:09:23.929Z,959.33
2017-04-05T01:10:20.002Z,959.31
2017-04-05T01:11:21.071Z,959.32
2017-04-05T01:12:21.058Z,959.35
2017-04-05T01:13:20.220Z,959.32
2017-04-05T01:14:25.692Z,959.34
2017-04-05T01:15:21.141Z,959.32
2017-04-05T01:16:19.808Z,959.35
2017-04-05T01:17:22.296Z,959.31
2017-04-05T01:18:20.299Z,959.30
2017-04-05T01:19:20.281Z,959.31
2017-04-05T01:20:22.000Z,959.30
2017-04-05T01:21:20.077Z,959.27
2017-04-05T01:22:20.071Z,959.30
2017-04-05T01:23:19.789Z,959.28
2017-04-05T01:24:20.006Z,959.28
2017-04-05T01:25:19.840Z,959.28
2017-04-05T01:26:19.865Z,959.25
2017-04-05T01:27:20.095Z,959.24
2017-04-05T01:28:20.255Z,959.27
2017-04-05T01:29:20.006Z,959.22
2017-04-05T01:30:26.498Z,959.20
2017-04-05T01:31:20.043Z,959.17
2017-04-05T01:32:23.047Z,959.21
2017-04-05T01:33:21.108Z,959.21
2017-04-05T01:34:20.044Z,959.19
2017-04-05T01:35:20.161Z,959.14
2017-04-05T01:36:21.090Z,959.17
2017-04-05T01:37:20.064Z,959.14
2017-04-05T01:38:32.495Z,959.14
2017-04-05T01:39:20.099Z,959.12
2017-04-05T01:40:20.049Z,959.11
2017-04-05T01:41:27.529Z,959.12
2017-04-05T01:42:20.277Z,959.12
2017-04-05T01:43:26.194Z,959.09
2017-04-05T01:44:20.570Z,959.13
2017-04-05T01:45:20.383Z,959.16
2017-04-05T01:46:20.004Z,959.10
2017-04-05T01:47:20.088Z,959.19
2017-04-05T01:49:24.074Z,959.18
2017-04-05T01:50:20.598Z,959.17
2017-04-05T01:51:20.648Z,959.17
2017-04-05T01:52:22.687Z,959.14
2017-04-05T01:53:20.391Z,959.17
2017-04-05T01:54:21.499Z,959.13
2017-04-05T01:55:20.095Z,959.15
2017-04-05T01:56:20.147Z,959.10
2017-04-05T01:57:20.105Z,959.13
2017-04-05T01:58:23.207Z,959.12
2017-04-05T01:59:20.522Z,959.10
2017-04-05T02:00:20.065Z,959.09
2017-04-05T02:01:20.348Z,959.06
2017-04-05T02:02:21.061Z,959.02
2017-04-05T02:03:26.582Z,959.08
2017-04-05T02:04:20.105Z,959.03
2017-04-05T02:05:20.843Z,959.01
2017-04-05T02:06:21.107Z,959.03
2017-04-05T02:07:21.140Z,959.02
2017-04-05T02:08:20.403Z,959.01
2017-04-05T02:09:20.081Z,959.01
2017-04-05T02:10:16.271Z,959.05
2017-04-05T02:11:32.268Z,958.96
2017-04-05T02:12:20.094Z,958.98
2017-04-05T02:13:21.060Z,958.96
2017-04-05T02:14:19.908Z,958.98
2017-04-05T02:15:20.091Z,958.97
2017-04-05T02:16:21.124Z,958.95
2017-04-05T02:17:19.855Z,958.98
2017-04-05T02:18:20.120Z,958.95
2017-04-05T02:19:20.503Z,958.97
2017-04-05T02:20:21.113Z,958.93
2017-04-05T02:21:25.837Z,958.94
2017-04-05T02:22:20.353Z,958.95
2017-04-05T02:23:25.799Z,958.96
2017-04-05T02:24:20.153Z,958.95
2017-04-05T02:25:23.097Z,958.94
2017-04-05T02:26:19.934Z,958.92
2017-04-05T02:27:29.974Z,958.91
2017-04-05T02:28:22.973Z,958.85
2017-04-05T02:29:20.152Z,958.94
2017-04-05T02:30:22.566Z,958.89
2017-04-05T02:31:21.451Z,958.83
2017-04-05T02:32:21.526Z,958.88
2017-04-05T02:33:20.169Z,958.84
2017-04-05T02:34:17.864Z,958.84
2017-04-05T02:35:20.928Z,958.85
2017-04-05T02:36:20.648Z,958.85
2017-04-05T02:37:22.789Z,958.88
2017-04-05T02:38:21.946Z,958.90
2017-04-05T02:39:21.266Z,958.87
2017-04-05T02:40:20.994Z,958.89
2017-04-05T02:41:21.253Z,958.90
2017-04-05T02:42:20.949Z,958.90
2017-04-05T02:43:26.213Z,958.90
2017-04-05T02:44:21.873Z,958.88
2017-04-05T02:45:20.642Z,958.90
2017-04-05T02:46:20.400Z,958.94
2017-04-05T02:47:20.393Z,958.93
2017-04-05T02:48:20.401Z,958.95
2017-04-05T02:49:19.241Z,958.90
2017-04-05T02:50:20.452Z,958.91
2017-04-05T02:51:20.433Z,958.96
2017-04-05T02:52:19.462Z,958.94
2017-04-05T02:53:21.016Z,958.92
2017-04-05T02:54:20.151Z,958.95
2017-04-05T02:55:21.304Z,958.93
2017-04-05T02:56:20.169Z,958.92
2017-04-05T02:57:22.741Z,958.95
2017-04-05T02:58:20.211Z,958.94
2017-04-05T02:59:26.040Z,958.93
2017-04-05T03:00:20.467Z,958.91
2017-04-05T03:01:20.420Z,958.95
2017-04-05T03:02:21.095Z,958.97
2017-04-05T03:03:20.157Z,958.97
2017-04-05T03:04:20.150Z,958.93
2017-04-05T03:05:20.425Z,958.95
2017-04-05T03:06:19.266Z,958.98
2017-04-05T03:07:35.207Z,958.94
2017-04-05T03:08:20.342Z,958.97
2017-04-05T03:09:20.398Z,958.98
2017-04-05T03:10:20.151Z,958.98
2017-04-05T03:11:22.934Z,958.96
2017-04-05T03:12:20.217Z,959.02
2017-04-05T03:13:19.951Z,959.02
2017-04-05T03:14:25.284Z,958.97
2017-04-05T03:15:28.411Z,958.99
2017-04-05T03:16:18.650Z,958.97
2017-04-05T03:17:19.251Z,958.97
2017-04-05T03:18:25.137Z,958.97
2017-04-05T03:19:21.155Z,958.99
2017-04-05T03:20:20.703Z,958.99
2017-04-05T03:21:20.167Z,959.00
2017-04-05T03:22:30.427Z,958.99
2017-04-05T03:23:19.343Z,959.02
2017-04-05T03:24:20.355Z,959.00
2017-04-05T03:25:24.763Z,959.02
2017-04-05T03:26:20.419Z,959.00
2017-04-05T03:27:20.145Z,959.07
2017-04-05T03:28:21.253Z,959.02
2017-04-05T03:29:21.723Z,959.09
2017-04-05T03:30:25.597Z,959.05
2017-04-05T03:31:20.974Z,959.08
2017-04-05T03:32:26.620Z,959.10
2017-04-05T03:33:20.947Z,959.08
2017-04-05T03:34:31.221Z,959.07
2017-04-05T03:35:21.226Z,959.13
2017-04-05T03:36:20.931Z,959.10
2017-04-05T03:37:19.996Z,959.10
2017-04-05T03:39:21.414Z,959.06
2017-04-05T03:40:21.262Z,959.09
2017-04-05T03:42:20.152Z,959.03
2017-04-05T03:43:29.760Z,958.99
2017-04-05T03:44:20.153Z,959.01
2017-04-05T03:45:21.205Z,959.02
2017-04-05T03:46:26.866Z,958.99
2017-04-05T03:47:20.171Z,959.06
2017-04-05T03:48:23.237Z,959.07
2017-04-05T03:49:20.201Z,958.98
2017-04-05T03:50:22.240Z,959.03
2017-04-05T03:51:26.416Z,959.04
2017-04-05T03:52:21.169Z,959.05
2017-04-05T03:53:20.223Z,959.04
2017-04-05T03:54:21.187Z,959.07
2017-04-05T03:55:25.203Z,959.09
2017-04-05T03:56:20.948Z,959.07
2017-04-05T03:57:21.125Z,959.05
2017-04-05T03:58:22.393Z,959.06
2017-04-05T03:59:29.981Z,959.06
2017-04-05T04:00:24.194Z,959.07
2017-04-05T04:01:20.570Z,959.09
2017-04-05T04:02:20.476Z,959.06
2017-04-05T04:03:20.427Z,959.06
2017-04-05T04:04:20.178Z,959.09
2017-04-05T04:05:20.188Z,959.07
2017-04-05T04:06:20.402Z,959.13
2017-04-05T04:07:21.187Z,959.14
2017-04-05T04:08:20.419Z,959.12
2017-04-05T04:09:27.466Z,959.13
2017-04-05T04:10:25.497Z,959.12
2017-04-05T04:11:21.549Z,959.16
2017-04-05T04:12:30.341Z,959.08
2017-04-05T04:13:17.458Z,959.12
2017-04-05T04:14:20.429Z,959.09
2017-04-05T04:15:25.017Z,959.07
2017-04-05T04:16:17.706Z,959.07
2017-04-05T04:17:20.439Z,959.05
2017-04-05T04:18:20.213Z,959.05
2017-04-05T04:19:20.248Z,959.05
2017-04-05T04:20:20.906Z,959.05
2017-04-05T04:21:20.321Z,959.07
2017-04-05T04:22:19.994Z,959.07
2017-04-05T04:23:21.325Z,959.15
2017-04-05T04:24:19.296Z,959.12
2017-04-05T04:25:30.670Z,959.12
2017-04-05T04:26:20.698Z,959.15
2017-04-05T04:27:21.201Z,959.16
2017-04-05T04:28:22.295Z,959.14
2017-04-05T04:29:25.422Z,959.13
2017-04-05T04:30:25.170Z,959.17
2017-04-05T04:31:20.864Z,959.17
2017-04-05T04:32:26.118Z,959.12
2017-04-05T04:33:20.915Z,959.13
2017-04-05T04:34:20.740Z,959.11
2017-04-05T04:35:21.237Z,959.11
2017-04-05T04:36:21.296Z,959.09
2017-04-05T04:37:20.746Z,959.09
2017-04-05T04:38:21.460Z,959.12
2017-04-05T04:39:30.026Z,959.12
2017-04-05T04:40:25.745Z,959.15
2017-04-05T04:41:22.872Z,959.14
2017-04-05T04:42:21.206Z,959.14
2017-04-05T04:43:20.727Z,959.13
2017-04-05T04:44:21.229Z,959.15
2017-04-05T04:45:20.364Z,959.14
2017-04-05T04:46:20.468Z,959.17
2017-04-05T04:47:21.493Z,959.17
2017-04-05T04:48:35.313Z,959.13
2017-04-05T04:49:21.280Z,959.18
2017-04-05T04:50:25.957Z,959.15
2017-04-05T04:51:21.001Z,959.16
2017-04-05T04:52:21.632Z,959.18
2017-04-05T04:53:20.494Z,959.15
2017-04-05T04:54:26.326Z,959.15
2017-04-05T04:55:21.204Z,959.17
2017-04-05T04:56:20.338Z,959.19
2017-04-05T04:57:20.745Z,959.18
2017-04-05T04:58:19.984Z,959.16
2017-04-05T04:59:26.203Z,959.17
2017-04-05T05:00:21.036Z,959.17
2017-04-05T05:01:19.884Z,959.11
2017-04-05T05:02:20.267Z,959.08
2017-04-05T05:03:15.806Z,959.11
2017-04-05T05:04:25.611Z,959.09
2017-04-05T05:05:21.259Z,959.10
2017-04-05T05:06:26.166Z,959.10
2017-04-05T05:07:21.260Z,959.12
2017-04-05T05:08:21.270Z,959.15
2017-04-05T05:09:20.943Z,959.17
2017-04-05T05:10:20.470Z,959.15
2017-04-05T05:11:20.247Z,959.18
2017-04-05T05:12:20.037Z,959.18
2017-04-05T05:13:22.817Z,959.19
2017-04-05T05:14:26.644Z,959.23
2017-04-05T05:15:26.755Z,959.18
2017-04-05T05:16:20.475Z,959.22
2017-04-05T05:17:21.968Z,959.22
2017-04-05T05:18:26.620Z,959.18
2017-04-05T05:19:21.578Z,959.24
2017-04-05T05:20:21.984Z,959.25
2017-04-05T05:21:25.428Z,959.26
2017-04-05T05:25:23.043Z,959.29
2017-04-05T05:26:25.681Z,959.33
2017-04-05T05:27:35.234Z,959.34
2017-04-05T05:28:22.713Z,959.31
2017-04-05T05:29:34.505Z,959.37
2017-04-05T05:30:22.905Z,959.36
2017-04-05T05:31:19.311Z,959.36
2017-04-05T05:32:20.452Z,959.37
2017-04-05T05:33:21.503Z,959.34
2017-04-05T05:34:21.246Z,959.36
2017-04-05T05:35:20.648Z,959.34
2017-04-05T05:36:20.359Z,959.35
2017-04-05T05:37:21.233Z,959.41
2017-04-05T05:38:20.512Z,959.40
2017-04-05T05:39:21.574Z,959.40
2017-04-05T05:40:20.834Z,959.42
2017-04-05T05:41:20.433Z,959.43
2017-04-05T05:42:20.439Z,959.39
2017-04-05T05:43:15.215Z,959.43
2017-04-05T05:44:20.492Z,959.45
2017-04-05T05:45:21.549Z,959.44
2017-04-05T05:46:25.672Z,959.46
2017-04-05T05:47:22.550Z,959.48
2017-04-05T05:48:26.090Z,959.48
2017-04-05T05:49:21.550Z,959.50
2017-04-05T05:50:21.204Z,959.47
2017-04-05T05:51:20.503Z,959.49
2017-04-05T05:52:21.395Z,959.50
2017-04-05T05:53:20.182Z,959.46
2017-04-05T05:54:20.452Z,959.46
2017-04-05T05:55:21.537Z,959.49
2017-04-05T05:56:18.417Z,959.45
2017-04-05T05:57:20.536Z,959.51
2017-04-05T05:58:25.354Z,959.51
2017-04-05T05:59:20.953Z,959.52
2017-04-05T06:00:21.985Z,959.50
2017-04-05T06:01:20.411Z,959.53
2017-04-05T06:02:20.951Z,959.52
2017-04-05T06:03:30.269Z,959.58
2017-04-05T06:04:15.751Z,959.57
2017-04-05T06:05:27.280Z,959.59
2017-04-05T06:06:22.445Z,959.57
2017-04-05T06:07:22.002Z,959.56
2017-04-05T06:08:33.561Z,959.57
2017-04-05T06:09:20.445Z,959.55
2017-04-05T06:10:21.081Z,959.58
2017-04-05T06:11:20.500Z,959.55
2017-04-05T06:12:31.987Z,959.60
2017-04-05T06:13:20.053Z,959.56
2017-04-05T06:14:31.455Z,959.60
2017-04-05T06:15:20.539Z,959.58
2017-04-05T06:16:20.390Z,959.58
2017-04-05T06:17:21.328Z,959.61
2017-04-05T06:18:21.931Z,959.60
2017-04-05T06:19:20.364Z,959.64
2017-04-05T06:20:33.290Z,959.68
2017-04-05T06:21:15.047Z,959.72
2017-04-05T06:22:20.322Z,959.69
2017-04-05T06:23:22.067Z,959.68
2017-04-05T06:24:20.338Z,959.65
2017-04-05T06:25:20.318Z,959.68
2017-04-05T06:26:21.064Z,959.71
2017-04-05T06:27:20.589Z,959.73
2017-04-05T06:28:21.346Z,959.71
2017-04-05T06:29:21.355Z,959.73
2017-04-05T06:30:21.151Z,959.71
2017-04-05T06:31:20.169Z,959.71
2017-04-05T06:32:19.440Z,959.74
2017-04-05T06:33:20.342Z,959.71
2017-04-05T06:34:21.831Z,959.70
2017-04-05T06:35:22.776Z,959.75
2017-04-05T06:36:21.954Z,959.79
2017-04-05T06:37:20.129Z,959.74
2017-04-05T06:38:20.326Z,959.81
2017-04-05T06:39:31.359Z,959.78
2017-04-05T06:40:20.589Z,959.79
2017-04-05T06:41:19.155Z,959.79
2017-04-05T06:42:20.434Z,959.78
2017-04-05T06:43:32.445Z,959.77
2017-04-05T06:44:20.499Z,959.74
2017-04-05T06:45:20.407Z,959.68
2017-04-05T06:46:20.568Z,959.67
2017-04-05T06:47:20.343Z,959.66
2017-04-05T06:48:20.446Z,959.69
2017-04-05T06:49:21.544Z,959.69
2017-04-05T06:50:26.399Z,959.64
2017-04-05T06:51:20.466Z,959.72
2017-04-05T06:52:30.048Z,959.69
2017-04-05T06:53:23.181Z,959.74
2017-04-05T06:54:20.219Z,959.74
2017-04-05T06:55:20.335Z,959.74
2017-04-05T06:56:21.264Z,959.73
2017-04-05T06:57:21.838Z,959.75
2017-04-05T06:58:21.317Z,959.74
2017-04-05T06:59:25.466Z,959.76
2017-04-05T07:00:20.512Z,959.76
2017-04-05T07:01:21.623Z,959.73
2017-04-05T07:02:20.429Z,959.79
2017-04-05T07:03:20.621Z,959.75
2017-04-05T07:04:25.327Z,959.81
2017-04-05T07:05:21.462Z,959.79
2017-04-05T07:06:21.615Z,959.81
2017-04-05T07:07:21.195Z,959.80
2017-04-05T07:08:20.987Z,959.83
2017-04-05T07:09:22.358Z,959.85
2017-04-05T07:10:25.481Z,959.85
2017-04-05T07:11:31.161Z,959.87
2017-04-05T07:12:20.548Z,959.88
2017-04-05T07:13:15.821Z,959.88
2017-04-05T07:14:20.631Z,959.90
2017-04-05T07:15:20.404Z,959.90
2017-04-05T07:16:22.155Z,959.89
2017-04-05T07:17:28.010Z,959.92
2017-04-05T07:18:27.099Z,959.91
2017-04-05T07:19:21.045Z,959.91
2017-04-05T07:20:26.491Z,959.88
2017-04-05T07:21:20.189Z,959.91
2017-04-05T07:22:21.295Z,959.91
2017-04-05T07:23:22.835Z,959.92
2017-04-05T07:24:20.408Z,959.91
2017-04-05T07:25:20.410Z,959.93
2017-04-05T07:26:20.909Z,959.91
2017-04-05T07:27:31.384Z,959.91
2017-04-05T07:28:21.349Z,959.93
2017-04-05T07:29:20.667Z,959.99
2017-04-05T07:30:21.335Z,959.97
2017-04-05T07:31:20.349Z,959.96
2017-04-05T07:32:20.865Z,960.00
2017-04-05T07:33:30.254Z,959.97
2017-04-05T07:34:20.313Z,960.02
2017-04-05T07:35:20.623Z,959.99
2017-04-05T07:36:28.544Z,960.07
2017-04-05T07:37:20.492Z,960.08
2017-04-05T07:38:20.475Z,960.08
2017-04-05T07:39:21.440Z,960.09
2017-04-05T07:40:25.374Z,960.09
2017-04-05T07:41:20.682Z,960.11
2017-04-05T07:42:21.216Z,960.09
2017-04-05T07:43:26.190Z,960.10
2017-04-05T07:44:20.706Z,960.12
2017-04-05T07:45:21.427Z,960.08
2017-04-05T07:46:20.693Z,960.12
2017-04-05T07:47:20.610Z,960.09
2017-04-05T07:48:20.568Z,960.06
2017-04-05T07:49:20.755Z,960.12
2017-04-05T07:50:20.492Z,960.10
2017-04-05T07:51:21.493Z,960.08
2017-04-05T07:52:19.585Z,960.08
2017-04-05T07:53:25.801Z,960.08
2017-04-05T07:54:21.177Z,960.12
2017-04-05T07:55:19.667Z,960.12
2017-04-05T07:56:20.965Z,960.13
2017-04-05T07:57:20.478Z,960.10
2017-04-05T07:58:21.356Z,960.12
2017-04-05T07:59:20.792Z,960.15
2017-04-05T08:00:21.613Z,960.15
2017-04-05T08:01:20.908Z,960.16
2017-04-05T08:02:20.875Z,960.17
2017-04-05T08:03:20.349Z,960.19
2017-04-05T08:04:21.921Z,960.27
2017-04-05T08:05:21.334Z,960.26
2017-04-05T08:06:20.615Z,960.27
2017-04-05T08:07:22.732Z,960.27
2017-04-05T08:08:21.267Z,960.29
2017-04-05T08:09:20.788Z,960.25
2017-04-05T08:10:20.808Z,960.29
2017-04-05T08:11:21.744Z,960.29
2017-04-05T08:12:21.578Z,960.28
2017-04-05T08:13:26.376Z,960.29
2017-04-05T08:14:20.533Z,960.30
2017-04-05T08:15:22.442Z,960.28
2017-04-05T08:16:18.916Z,960.30
2017-04-05T08:17:30.359Z,960.30
2017-04-05T08:18:18.497Z,960.27
2017-04-05T08:19:20.539Z,960.29
2017-04-05T08:20:22.426Z,960.28
2017-04-05T08:21:20.559Z,960.26
2017-04-05T08:22:25.095Z,960.31
2017-04-05T08:23:20.638Z,960.29
2017-04-05T08:24:20.963Z,960.33
2017-04-05T08:25:27.450Z,960.31
2017-04-05T08:26:20.344Z,960.29
2017-04-05T08:27:22.399Z,960.30
2017-04-05T08:28:23.911Z,960.31
2017-04-05T08:29:20.896Z,960.27
2017-04-05T08:30:21.654Z,960.32
2017-04-05T08:31:26.697Z,960.30
2017-04-05T08:32:20.359Z,960.32
2017-04-05T08:33:22.425Z,960.32
2017-04-05T08:34:20.876Z,960.37
2017-04-05T08:35:20.565Z,960.36
2017-04-05T08:36:22.744Z,960.36
2017-04-05T08:37:21.280Z,960.35
2017-04-05T08:38:20.977Z,960.35
2017-04-05T08:39:21.223Z,960.36
2017-04-05T08:40:26.446Z,960.40
2017-04-05T08:41:18.491Z,960.41
2017-04-05T08:42:19.303Z,960.39
2017-04-05T08:43:26.308Z,960.37
2017-04-05T08:44:20.517Z,960.37
2017-04-05T08:45:21.418Z,960.36
2017-04-05T08:46:21.474Z,960.35
2017-04-05T08:47:23.445Z,960.34
2017-04-05T08:48:21.604Z,960.35
2017-04-05T08:49:20.855Z,960.34
2017-04-05T08:50:21.141Z,960.35
2017-04-05T08:51:21.657Z,960.38
2017-04-05T08:52:22.015Z,960.40
2017-04-05T08:53:30.900Z,960.38
2017-04-05T08:54:21.301Z,960.39
2017-04-05T08:55:21.483Z,960.42
2017-04-05T08:56:25.620Z,960.48
2017-04-05T08:57:20.712Z,960.43
2017-04-05T08:58:21.236Z,960.38
2017-04-05T08:59:22.415Z,960.45
2017-04-05T09:00:21.672Z,960.37
2017-04-05T09:01:27.779Z,960.41
2017-04-05T09:02:19.749Z,960.40
2017-04-05T09:03:23.104Z,960.39
2017-04-05T09:04:22.202Z,960.34
2017-04-05T09:05:25.702Z,960.38
2017-04-05T09:06:21.540Z,960.29
2017-04-05T09:07:21.668Z,960.29
2017-04-05T09:08:20.717Z,960.28
2017-04-05T09:09:20.939Z,960.29
2017-04-05T09:10:23.272Z,960.26
2017-04-05T09:11:20.997Z,960.30
2017-04-05T09:12:20.913Z,960.29
2017-04-05T09:13:21.775Z,960.32
2017-04-05T09:14:26.351Z,960.30
2017-04-05T09:15:33.580Z,960.29
2017-04-05T09:16:22.218Z,960.27
2017-04-05T09:17:22.721Z,960.27
2017-04-05T09:18:25.702Z,960.28
2017-04-05T09:19:20.688Z,960.28
2017-04-05T09:20:31.289Z,960.29
2017-04-05T09:21:20.669Z,960.26
2017-04-05T09:22:30.491Z,960.26
2017-04-05T09:23:20.707Z,960.28
2017-04-05T09:24:21.548Z,960.34
2017-04-05T09:25:20.969Z,960.33
2017-04-05T09:26:21.602Z,960.30
2017-04-05T09:27:21.455Z,960.30
2017-04-05T09:28:21.030Z,960.32
2017-04-05T09:29:27.097Z,960.36
2017-04-05T09:30:24.850Z,960.34
2017-04-05T09:31:21.427Z,960.36
2017-04-05T09:32:20.825Z,960.37
2017-04-05T09:33:21.940Z,960.34
2017-04-05T09:34:32.066Z,960.37
2017-04-05T09:35:20.828Z,960.32
2017-04-05T09:36:21.576Z,960.36
2017-04-05T09:37:21.325Z,960.32
2017-04-05T09:38:25.538Z,960.33
2017-04-05T09:39:22.239Z,960.31
2017-04-05T09:40:22.100Z,960.32
2017-04-05T09:41:21.011Z,960.36
2017-04-05T09:42:21.286Z,960.33
2017-04-05T09:43:21.222Z,960.36
2017-04-05T09:44:21.003Z,960.37
2017-04-05T09:45:21.039Z,960.36
2017-04-05T09:46:20.776Z,960.35
2017-04-05T09:47:20.988Z,960.35
2017-04-05T09:48:21.042Z,960.33
2017-04-05T09:49:20.817Z,960.34
2017-04-05T09:50:21.671Z,960.31
2017-04-05T09:51:20.970Z,960.34
2017-04-05T09:52:20.527Z,960.34
2017-04-05T09:53:27.671Z,960.35
2017-04-05T09:54:22.765Z,960.33
2017-04-05T09:55:26.011Z,960.34
2017-04-05T09:56:27.174Z,960.34
2017-04-05T09:57:22.088Z,960.32
2017-04-05T09:58:19.941Z,960.32
2017-04-05T09:59:21.528Z,960.28
2017-04-05T10:00:22.645Z,960.35
2017-04-05T10:01:21.528Z,960.36
2017-04-05T10:02:21.231Z,960.29
2017-04-05T10:03:20.769Z,960.31
2017-04-05T10:04:21.005Z,960.33
2017-04-05T10:05:20.809Z,960.35
2017-04-05T10:06:21.069Z,960.32
2017-04-05T10:07:20.802Z,960.32
2017-04-05T10:08:20.763Z,960.33
2017-04-05T10:09:21.084Z,960.34
2017-04-05T10:10:27.113Z,960.34
2017-04-05T10:11:21.080Z,960.36
2017-04-05T10:12:20.853Z,960.38
2017-04-05T10:13:25.744Z,960.40
2017-04-05T10:14:21.073Z,960.36
2017-04-05T10:15:26.099Z,960.38
2017-04-05T10:16:20.844Z,960.33
2017-04-05T10:17:20.772Z,960.34
2017-04-05T10:18:21.054Z,960.34
2017-04-05T10:19:21.189Z,960.33
2017-04-05T10:20:22.916Z,960.30
2017-04-05T10:21:21.121Z,960.32
2017-04-05T10:22:20.804Z,960.35
2017-04-05T10:23:25.855Z,960.31
2017-04-05T10:24:21.578Z,960.33
2017-04-05T10:25:22.160Z,960.32
2017-04-05T10:26:16.348Z,960.30
2017-04-05T10:27:18.971Z,960.31
2017-04-05T10:28:25.530Z,960.32
2017-04-05T10:29:26.627Z,960.35
2017-04-05T10:30:20.858Z,960.32
2017-04-05T10:31:24.883Z,960.31
2017-04-05T10:32:20.950Z,960.28
2017-04-05T10:33:21.590Z,960.32
2017-04-05T10:34:20.875Z,960.30
2017-04-05T10:35:26.048Z,960.26
2017-04-05T10:36:20.816Z,960.29
2017-04-05T10:37:27.392Z,960.30
2017-04-05T10:38:22.597Z,960.24
2017-04-05T10:39:21.627Z,960.25
2017-04-05T10:40:22.882Z,960.26
2017-04-05T10:41:20.841Z,960.22
2017-04-05T10:42:21.619Z,960.21
2017-04-05T10:43:21.375Z,960.21
2017-04-05T10:44:20.547Z,960.20
2017-04-05T10:45:15.551Z,960.15
2017-04-05T10:46:26.649Z,960.21
2017-04-05T10:47:20.818Z,960.19
2017-04-05T10:48:20.701Z,960.19
2017-04-05T10:49:20.631Z,960.18
2017-04-05T10:50:22.619Z,960.23
2017-04-05T10:51:21.127Z,960.18
2017-04-05T10:52:20.785Z,960.16
2017-04-05T10:53:23.305Z,960.19
2017-04-05T10:54:22.544Z,960.17
2017-04-05T10:55:20.925Z,960.14
2017-04-05T10:56:21.658Z,960.17
2017-04-05T10:57:21.097Z,960.14
2017-04-05T10:58:21.206Z,960.15
2017-04-05T10:59:21.253Z,960.19
2017-04-05T11:00:20.764Z,960.19
2017-04-05T11:01:21.106Z,960.14
2017-04-05T11:02:26.041Z,960.12
2017-04-05T11:03:22.636Z,960.10
2017-04-05T11:04:21.890Z,960.14
2017-04-05T11:05:28.375Z,960.10
2017-04-05T11:06:21.038Z,960.10
2017-04-05T11:07:22.062Z,960.11
2017-04-05T11:08:27.374Z,960.11
2017-04-05T11:09:21.063Z,960.09
2017-04-05T11:10:21.562Z,960.09
2017-04-05T11:11:22.530Z,960.09
2017-04-05T11:12:20.901Z,960.12
2017-04-05T11:13:20.709Z,960.06
2017-04-05T11:14:21.060Z,960.08
2017-04-05T11:15:21.095Z,960.11
2017-04-05T11:16:19.944Z,960.08
2017-04-05T11:17:20.897Z,960.05
2017-04-05T11:18:20.650Z,960.01
2017-04-05T11:19:27.030Z,960.03
2017-04-05T11:20:21.961Z,959.98
2017-04-05T11:21:21.505Z,959.95
2017-04-05T11:22:21.894Z,959.98
2017-04-05T11:23:19.702Z,959.99
2017-04-05T11:24:22.206Z,959.96
2017-04-05T11:25:22.298Z,959.96
2017-04-05T11:26:20.868Z,959.98
2017-04-05T11:27:26.536Z,959.96
2017-04-05T11:28:21.919Z,959.96
2017-04-05T11:29:22.371Z,959.97
2017-04-05T11:30:20.947Z,959.97
2017-04-05T11:31:25.892Z,959.95
2017-04-05T11:32:20.900Z,959.95
2017-04-05T11:33:21.417Z,959.89
2017-04-05T11:34:21.515Z,959.94
2017-04-05T11:35:25.380Z,959.95
2017-04-05T11:36:30.438Z,959.96
2017-04-05T11:37:18.323Z,959.94
2017-04-05T11:38:20.974Z,959.96
2017-04-05T11:39:23.259Z,959.88
2017-04-05T11:40:21.053Z,959.90
2017-04-05T11:41:21.998Z,959.87
2017-04-05T11:42:21.956Z,959.92
2017-04-05T11:43:23.919Z,959.87
2017-04-05T11:44:22.757Z,959.85
2017-04-05T11:45:21.701Z,959.83
2017-04-05T11:46:18.549Z,959.82
2017-04-05T11:47:21.154Z,959.85
2017-04-05T11:48:21.001Z,959.81
2017-04-05T11:49:21.109Z,959.81
2017-04-05T11:50:21.207Z,959.82
2017-04-05T11:51:21.084Z,959.79
2017-04-05T11:52:22.662Z,959.78
2017-04-05T11:53:25.746Z,959.78
2017-04-05T11:54:21.101Z,959.77
2017-04-05T11:55:21.276Z,959.78
2017-04-05T11:56:21.135Z,959.76
2017-04-05T11:57:23.053Z,959.77
2017-04-05T11:58:25.933Z,959.74
2017-04-05T11:59:21.994Z,959.77
2017-04-05T12:00:20.982Z,959.72
2017-04-05T12:01:21.015Z,959.73
2017-04-05T12:02:27.026Z,959.74
2017-04-05T12:03:21.303Z,959.73
2017-04-05T12:04:22.424Z,959.67
2017-04-05T12:05:21.982Z,959.68
2017-04-05T12:06:22.982Z,959.70
2017-04-05T12:07:20.976Z,959.73
2017-04-05T12:08:21.136Z,959.76
2017-04-05T12:09:21.017Z,959.76
2017-04-05T12:10:21.393Z,959.75
2017-04-05T12:11:23.347Z,959.80
2017-04-05T12:12:21.184Z,959.77
2017-04-05T12:13:21.509Z,959.76
2017-04-05T12:14:21.065Z,959.79
2017-04-05T12:15:20.971Z,959.81
2017-04-05T12:16:21.050Z,959.82
2017-04-05T12:17:21.127Z,959.77
2017-04-05T12:18:21.607Z,959.80
2017-04-05T12:19:21.799Z,959.78
2017-04-05T12:20:20.795Z,959.74
2017-04-05T12:21:21.029Z,959.72
2017-04-05T12:22:23.146Z,959.73
2017-04-05T12:23:20.761Z,959.71
2017-04-05T12:24:20.734Z,959.67
2017-04-05T12:25:21.324Z,959.66
2017-04-05T12:26:21.568Z,959.66
2017-04-05T12:27:31.478Z,959.65
2017-04-05T12:28:21.568Z,959.63
2017-04-05T12:29:26.595Z,959.60
2017-04-05T12:30:21.107Z,959.52
2017-04-05T12:31:22.032Z,959.48
2017-04-05T12:32:20.785Z,959.53
2017-04-05T12:33:21.290Z,959.46
2017-04-05T12:34:20.740Z,959.49